createdAt,value
2022-07-26T00:00:39.188Z,26.35
2022-07-26T00:04:40.806Z,26.28
2022-07-26T00:08:42.504Z,26.20
2022-07-26T00:12:44.143Z,26.11
2022-07-26T00:16:45.921Z,25.98
2022-07-26T00:20:48.328Z,25.91
2022-07-26T00:24:50.193Z,25.81
2022-07-26T00:28:51.830Z,25.75
2022-07-26T00:32:53.427Z,25.67
2022-07-26T00:36:54.987Z,25.66
2022-07-26T00:40:56.673Z,25.53
2022-07-26T00:44:58.273Z,25.51
2022-07-26T00:48:59.899Z,25.39
2022-07-26T00:53:01.835Z,25.45
2022-07-26T00:57:04.134Z,25.38
2022-07-26T01:01:05.787Z,25.29
2022-07-26T01:05:07.960Z,25.23
2022-07-26T01:09:10.632Z,25.24
2022-07-26T01:13:13.131Z,25.24
2022-07-26T01:17:15.021Z,25.24
2022-07-26T01:21:16.893Z,25.23
2022-07-26T01:25:29.474Z,25.26
2022-07-26T01:29:35.404Z,25.27
2022-07-26T01:33:38.072Z,25.26
2022-07-26T01:37:39.717Z,25.23
2022-07-26T01:41:41.340Z,25.17
2022-07-26T01:45:42.990Z,25.09
2022-07-26T01:49:44.710Z,25.01
2022-07-26T01:53:46.508Z,24.99
2022-07-26T01:57:48.160Z,24.90
2022-07-26T02:01:49.861Z,24.80
2022-07-26T02:05:51.615Z,24.68
2022-07-26T02:09:54.122Z,24.63
2022-07-26T02:13:55.701Z,24.55
2022-07-26T02:17:57.279Z,24.44
2022-07-26T02:21:59.301Z,24.42
2022-07-26T02:26:01.529Z,24.41
2022-07-26T02:30:03.581Z,24.24
2022-07-26T02:34:05.272Z,24.05
2022-07-26T02:38:09.655Z,23.86
2022-07-26T02:42:12.187Z,23.78
2022-07-26T02:46:13.857Z,23.72
2022-07-26T02:50:19.372Z,23.69
2022-07-26T02:54:20.981Z,23.62
2022-07-26T02:58:24.924Z,23.64
2022-07-26T03:02:26.527Z,23.62
2022-07-26T03:06:28.141Z,23.59
2022-07-26T03:10:29.715Z,23.64
2022-07-26T03:14:31.830Z,23.53
2022-07-26T03:18:33.467Z,23.45
2022-07-26T03:22:35.127Z,23.37
2022-07-26T03:26:36.749Z,23.32
2022-07-26T03:30:38.449Z,23.38
2022-07-26T03:34:39.957Z,23.34
2022-07-26T03:38:41.537Z,23.29
2022-07-26T03:42:43.772Z,23.23
2022-07-26T03:46:45.615Z,23.26
2022-07-26T03:50:47.197Z,23.31
2022-07-26T03:54:48.866Z,23.31
2022-07-26T03:58:50.475Z,23.32
2022-07-26T04:02:52.417Z,23.29
2022-07-26T04:06:54.933Z,23.22
2022-07-26T04:10:56.600Z,23.19
2022-07-26T04:14:58.144Z,23.16
2022-07-26T04:18:59.735Z,23.18
2022-07-26T04:23:01.336Z,23.18
2022-07-26T04:27:03.018Z,23.18
2022-07-26T04:31:04.686Z,23.14
2022-07-26T04:35:06.645Z,22.99
2022-07-26T04:39:08.311Z,23.16
2022-07-26T04:43:15.549Z,23.21
2022-07-26T04:47:17.496Z,23.21
2022-07-26T04:51:19.115Z,23.23
2022-07-26T04:55:21.618Z,23.29
2022-07-26T04:59:23.317Z,23.35
2022-07-26T05:03:25.411Z,23.35
2022-07-26T05:07:27.057Z,23.31
2022-07-26T05:11:28.681Z,23.25
2022-07-26T05:15:35.578Z,23.22
2022-07-26T05:19:38.063Z,23.26
2022-07-26T05:23:39.801Z,23.35
2022-07-26T05:27:41.812Z,23.44
2022-07-26T05:31:43.518Z,23.53
2022-07-26T05:35:45.049Z,23.60
2022-07-26T05:39:46.665Z,23.68
2022-07-26T05:43:48.453Z,23.74
2022-07-26T05:47:51.216Z,23.74
2022-07-26T05:51:55.871Z,23.74
2022-07-26T05:55:59.682Z,23.71
2022-07-26T06:00:01.676Z,23.64
2022-07-26T06:04:14.142Z,23.59
2022-07-26T06:08:16.578Z,23.53
2022-07-26T06:12:18.492Z,23.42
2022-07-26T06:16:20.072Z,23.35
2022-07-26T06:20:21.846Z,23.11
2022-07-26T06:24:23.826Z,23.06
2022-07-26T06:28:25.494Z,23.07
2022-07-26T06:32:27.126Z,22.99
2022-07-26T06:36:31.091Z,22.99
2022-07-26T06:40:33.666Z,23.01
2022-07-26T06:44:35.272Z,23.14
2022-07-26T06:48:36.924Z,23.21
2022-07-26T06:52:41.040Z,23.21
2022-07-26T06:56:49.478Z,23.21
2022-07-26T07:00:51.143Z,23.21
2022-07-26T07:04:52.877Z,23.19
2022-07-26T07:08:54.479Z,23.22
2022-07-26T07:12:56.920Z,23.23
2022-07-26T07:16:59.119Z,23.25
2022-07-26T07:21:00.787Z,23.34
2022-07-26T07:25:02.953Z,23.41
2022-07-26T07:29:04.806Z,23.50
2022-07-26T07:33:07.285Z,23.47
2022-07-26T07:37:08.922Z,23.54
2022-07-26T07:41:13.928Z,23.57
2022-07-26T07:45:15.532Z,23.60
2022-07-26T07:49:17.204Z,23.77
2022-07-26T07:53:18.844Z,24.04
2022-07-26T07:57:21.658Z,24.05
2022-07-26T08:01:39.454Z,23.99
2022-07-26T08:05:41.560Z,24.09
2022-07-26T08:09:43.345Z,24.26
2022-07-26T08:13:47.918Z,24.51
2022-07-26T08:17:53.761Z,24.52
2022-07-26T08:21:56.601Z,24.66
2022-07-26T08:26:03.241Z,24.63
2022-07-26T08:30:08.468Z,24.30
2022-07-26T08:34:10.481Z,24.33
2022-07-26T08:38:12.056Z,24.46
2022-07-26T08:42:22.604Z,24.86
2022-07-26T08:46:27.639Z,25.14
2022-07-26T08:50:30.022Z,25.14
2022-07-26T08:54:31.665Z,25.11
2022-07-26T08:58:36.779Z,25.26
2022-07-26T09:02:41.738Z,25.48
2022-07-26T09:06:54.494Z,25.81
2022-07-26T09:10:56.365Z,25.72
2022-07-26T09:14:59.414Z,25.54
2022-07-26T09:19:21.278Z,25.69
2022-07-26T09:23:22.912Z,26.00
2022-07-26T09:27:28.210Z,26.23
2022-07-26T09:31:30.140Z,26.35
2022-07-26T09:35:52.163Z,26.38
2022-07-26T09:40:01.909Z,26.38
2022-07-26T09:44:20.830Z,26.61
2022-07-26T09:48:30.341Z,26.79
2022-07-26T09:53:03.754Z,26.75
2022-07-26T09:57:05.416Z,26.71
2022-07-26T10:01:08.078Z,26.66
2022-07-26T10:05:10.300Z,26.86
2022-07-26T10:09:13.514Z,26.69
2022-07-26T10:13:15.569Z,26.42
2022-07-26T10:17:31.307Z,26.20
2022-07-26T10:21:35.187Z,26.23
2022-07-26T10:25:47.856Z,26.65
2022-07-26T10:29:49.482Z,26.94
2022-07-26T10:33:52.906Z,27.23
2022-07-26T10:38:06.394Z,27.05
2022-07-26T10:42:10.051Z,26.86
2022-07-26T10:46:18.433Z,26.76
2022-07-26T10:50:32.431Z,26.81
2022-07-26T10:54:56.683Z,27.09
2022-07-26T10:58:58.545Z,27.93
2022-07-26T11:03:00.261Z,28.21
2022-07-26T11:07:01.892Z,28.01
2022-07-26T11:11:03.506Z,27.62
2022-07-26T11:15:18.850Z,27.27
2022-07-26T11:19:27.708Z,27.20
2022-07-26T11:23:32.298Z,27.12
2022-07-26T11:27:33.901Z,27.16
2022-07-26T11:31:55.780Z,27.35
2022-07-26T11:36:05.663Z,28.01
2022-07-26T11:40:07.720Z,27.98
2022-07-26T11:44:20.955Z,28.08
2022-07-26T11:48:22.584Z,28.24
2022-07-26T11:52:30.735Z,28.01
2022-07-26T11:56:32.574Z,28.01
2022-07-26T12:00:34.383Z,28.51
2022-07-26T12:04:38.877Z,28.91
2022-07-26T12:08:42.789Z,28.72
2022-07-26T12:12:44.459Z,28.61
2022-07-26T12:16:47.377Z,28.54
2022-07-26T12:21:08.445Z,28.51
2022-07-26T12:25:10.680Z,28.55
2022-07-26T12:29:24.282Z,28.62
2022-07-26T12:33:25.912Z,28.52
2022-07-26T12:37:39.974Z,28.28
2022-07-26T12:41:42.327Z,27.99
2022-07-26T12:45:43.975Z,27.93
2022-07-26T12:49:46.669Z,27.81
2022-07-26T12:53:48.266Z,27.83
2022-07-26T12:57:49.920Z,27.80
2022-07-26T13:01:57.525Z,27.68
2022-07-26T13:05:59.256Z,27.69
2022-07-26T13:10:31.942Z,27.69
2022-07-26T13:14:23.467Z,27.63
2022-07-26T13:18:25.070Z,27.65
2022-07-26T13:22:26.680Z,27.49
2022-07-26T13:26:28.763Z,27.39
2022-07-26T13:30:30.972Z,27.35
2022-07-26T13:34:35.033Z,27.38
2022-07-26T13:38:36.978Z,27.50
2022-07-26T13:42:38.679Z,27.69
2022-07-26T13:46:40.331Z,27.98
2022-07-26T13:50:42.137Z,28.35
2022-07-26T13:54:43.778Z,28.48
2022-07-26T13:58:45.366Z,28.42
2022-07-26T14:02:47.005Z,28.38
2022-07-26T14:06:49.247Z,28.25
2022-07-26T14:10:50.892Z,28.25
2022-07-26T14:14:52.513Z,28.28
2022-07-26T14:18:58.196Z,28.33
2022-07-26T14:23:00.229Z,28.36
2022-07-26T14:27:02.979Z,28.38
2022-07-26T14:31:05.152Z,28.50
2022-07-26T14:35:07.329Z,28.79
2022-07-26T14:39:09.143Z,29.17
2022-07-26T14:43:10.706Z,29.25
2022-07-26T14:47:12.327Z,29.07
2022-07-26T14:51:14.332Z,28.94
2022-07-26T14:55:19.340Z,28.79
2022-07-26T14:59:22.085Z,28.62
2022-07-26T15:03:23.727Z,28.50
2022-07-26T15:07:25.360Z,28.50
2022-07-26T15:11:26.965Z,28.85
2022-07-26T15:15:28.858Z,29.26
2022-07-26T15:19:30.534Z,29.05
2022-07-26T15:23:32.411Z,28.88
2022-07-26T15:27:34.043Z,28.95
2022-07-26T15:31:36.695Z,28.79
2022-07-26T15:35:40.577Z,28.54
2022-07-26T15:39:42.296Z,28.40
2022-07-26T15:43:48.717Z,28.38
2022-07-26T15:47:59.067Z,28.38
2022-07-26T15:52:06.532Z,28.35
2022-07-26T15:56:08.296Z,28.33
2022-07-26T16:00:12.071Z,28.40
2022-07-26T16:04:14.402Z,28.51
2022-07-26T16:08:16.198Z,28.69
2022-07-26T16:12:17.906Z,29.23
2022-07-26T16:16:19.603Z,29.89
2022-07-26T16:20:21.381Z,30.21
2022-07-26T16:24:23.051Z,30.64
2022-07-26T16:28:24.660Z,31.27
2022-07-26T16:32:26.236Z,31.46
2022-07-26T16:36:27.870Z,31.57
2022-07-26T16:40:29.557Z,31.04
2022-07-26T16:44:31.171Z,30.32
2022-07-26T16:48:32.871Z,29.81
2022-07-26T16:52:34.539Z,29.36
2022-07-26T16:56:36.104Z,29.03
2022-07-26T17:00:37.770Z,28.80
2022-07-26T17:04:39.483Z,28.62
2022-07-26T17:08:41.625Z,28.46
2022-07-26T17:12:43.397Z,28.38
2022-07-26T17:16:46.841Z,28.28
2022-07-26T17:20:48.569Z,28.28
2022-07-26T17:24:50.208Z,28.27
2022-07-26T17:28:51.804Z,28.28
2022-07-26T17:32:53.678Z,28.30
2022-07-26T17:37:03.268Z,28.39
2022-07-26T17:41:08.608Z,28.36
2022-07-26T17:45:10.738Z,28.28
2022-07-26T17:49:12.866Z,28.27
2022-07-26T17:53:14.730Z,28.23
2022-07-26T17:57:19.799Z,28.11
2022-07-26T18:01:21.507Z,28.09
2022-07-26T18:05:26.126Z,27.96
2022-07-26T18:09:31.875Z,27.84
2022-07-26T18:13:33.762Z,27.77
2022-07-26T18:17:35.595Z,27.66
2022-07-26T18:21:37.210Z,27.58
2022-07-26T18:25:38.839Z,27.45
2022-07-26T18:29:40.465Z,27.24
2022-07-26T18:33:42.093Z,27.15
2022-07-26T18:37:43.679Z,27.03
2022-07-26T18:41:45.338Z,26.96
2022-07-26T18:45:49.280Z,26.86
2022-07-26T18:49:51.393Z,26.79
2022-07-26T18:53:53.436Z,26.68
2022-07-26T18:57:55.062Z,26.65
2022-07-26T19:01:58.753Z,26.59
2022-07-26T19:06:01.690Z,26.49
2022-07-26T19:10:05.254Z,26.35
2022-07-26T19:14:07.002Z,26.27
2022-07-26T19:18:14.580Z,26.12
2022-07-26T19:22:16.221Z,26.04
2022-07-26T19:26:17.953Z,25.98
2022-07-26T19:30:19.665Z,25.93
2022-07-26T19:34:21.297Z,25.91
2022-07-26T19:38:23.251Z,25.81
2022-07-26T19:42:24.862Z,25.74
2022-07-26T19:46:26.515Z,25.60
2022-07-26T19:50:28.292Z,25.46
2022-07-26T19:54:29.974Z,25.36
2022-07-26T19:58:31.585Z,25.24
2022-07-26T20:02:33.328Z,25.11
2022-07-26T20:06:35.238Z,24.99
2022-07-26T20:10:37.058Z,24.93
2022-07-26T20:14:38.722Z,24.87
2022-07-26T20:18:40.317Z,24.80
2022-07-26T20:22:41.922Z,24.70
2022-07-26T20:26:43.526Z,24.59
2022-07-26T20:30:48.203Z,24.52
2022-07-26T20:34:49.872Z,24.49
2022-07-26T20:38:51.841Z,24.42
2022-07-26T20:42:53.523Z,24.34
2022-07-26T20:46:55.366Z,24.30
2022-07-26T20:50:56.958Z,24.27
2022-07-26T20:54:59.021Z,24.26
2022-07-26T20:59:02.296Z,24.16
2022-07-26T21:03:04.005Z,24.09
2022-07-26T21:07:05.580Z,24.00
2022-07-26T21:11:07.175Z,23.97
2022-07-26T21:15:09.240Z,23.93
2022-07-26T21:19:11.244Z,23.86
2022-07-26T21:23:17.809Z,23.79
2022-07-26T21:27:20.749Z,23.77
2022-07-26T21:31:22.334Z,23.75
2022-07-26T21:35:23.914Z,23.72
2022-07-26T21:39:25.514Z,23.68
2022-07-26T21:43:27.175Z,23.60
2022-07-26T21:47:28.817Z,23.59
2022-07-26T21:51:30.631Z,23.56
2022-07-26T21:55:32.288Z,23.52
2022-07-26T21:59:33.901Z,23.45
2022-07-26T22:03:36.584Z,23.39
2022-07-26T22:07:38.240Z,23.32
2022-07-26T22:11:39.810Z,23.25
2022-07-26T22:15:42.182Z,23.18
2022-07-26T22:19:43.777Z,23.06
2022-07-26T22:23:45.445Z,22.94
2022-07-26T22:27:47.020Z,22.89
2022-07-26T22:31:48.639Z,22.81
2022-07-26T22:35:50.691Z,22.72
2022-07-26T22:39:52.302Z,22.63
2022-07-26T22:43:53.908Z,22.52
2022-07-26T22:47:56.751Z,22.48
2022-07-26T22:51:58.435Z,22.45
2022-07-26T22:56:00.094Z,22.45
2022-07-26T23:00:01.664Z,22.39
2022-07-26T23:04:03.421Z,22.38
2022-07-26T23:08:23.583Z,22.31
2022-07-26T23:12:29.463Z,22.31
2022-07-26T23:16:31.171Z,22.30
2022-07-26T23:20:32.950Z,22.30
2022-07-26T23:24:34.867Z,22.27
2022-07-26T23:28:38.424Z,22.20
2022-07-26T23:32:40.248Z,22.14
2022-07-26T23:36:41.880Z,22.08
2022-07-26T23:40:43.421Z,22.06
2022-07-26T23:44:45.761Z,22.06
2022-07-26T23:48:48.024Z,22.04
2022-07-26T23:52:49.684Z,22.04
2022-07-26T23:56:51.299Z,21.94
